createdAt,value
2019-05-05T00:00:47.705Z,10.93
2019-05-05T00:03:31.059Z,10.50
2019-05-05T00:05:59.271Z,10.40
2019-05-05T00:08:25.367Z,11.30
2019-05-05T00:10:54.132Z,10.53
2019-05-05T00:13:40.041Z,10.47
2019-05-05T00:16:20.248Z,11.07
2019-05-05T00:18:46.434Z,11.30
2019-05-05T00:21:12.520Z,13.63
2019-05-05T00:23:38.588Z,11.13
2019-05-05T00:26:04.883Z,10.17
2019-05-05T00:28:31.187Z,10.23
2019-05-05T00:30:57.392Z,10.23
2019-05-05T00:33:24.896Z,11.30
2019-05-05T00:35:51.306Z,10.90
2019-05-05T00:38:17.477Z,12.77
2019-05-05T00:40:44.353Z,14.20
2019-05-05T00:43:10.555Z,14.17
2019-05-05T00:45:37.968Z,14.30
2019-05-05T00:48:24.432Z,15.43
2019-05-05T00:50:51.936Z,14.10
2019-05-05T00:53:18.181Z,15.90
2019-05-05T00:55:44.401Z,11.40
2019-05-05T00:58:10.528Z,14.43
2019-05-05T01:00:38.628Z,11.60
2019-05-05T01:03:05.106Z,11.03
2019-05-05T01:05:36.205Z,10.80
2019-05-05T01:08:05.216Z,11.00
2019-05-05T01:10:32.896Z,9.83
2019-05-05T01:12:59.119Z,10.23
2019-05-05T01:15:25.576Z,10.00
2019-05-05T01:17:51.725Z,9.83
2019-05-05T01:20:17.947Z,9.77
2019-05-05T01:22:44.825Z,12.47
2019-05-05T01:25:11.629Z,9.77
2019-05-05T01:27:38.060Z,13.53
2019-05-05T01:30:09.203Z,12.73
2019-05-05T01:32:44.603Z,11.33
2019-05-05T01:35:14.332Z,14.07
2019-05-05T01:37:45.118Z,14.50
2019-05-05T01:40:16.082Z,14.43
2019-05-05T01:42:42.307Z,12.40
2019-05-05T01:45:08.692Z,10.73
2019-05-05T01:47:34.935Z,9.40
2019-05-05T01:50:13.771Z,10.53
2019-05-05T01:52:29.329Z,11.73
2019-05-05T01:54:55.546Z,10.17
2019-05-05T01:57:21.961Z,9.63
2019-05-05T01:59:48.225Z,9.27
2019-05-05T02:02:14.820Z,9.90
2019-05-05T02:04:41.132Z,13.00
2019-05-05T02:07:08.441Z,12.27
2019-05-05T02:09:35.358Z,12.50
2019-05-05T02:12:01.936Z,11.87
2019-05-05T02:14:28.246Z,12.37
2019-05-05T02:16:54.891Z,10.80
2019-05-05T02:19:22.296Z,12.13
2019-05-05T02:21:48.598Z,10.60
2019-05-05T02:24:14.920Z,9.10
2019-05-05T02:26:41.130Z,9.67
2019-05-05T02:29:18.216Z,9.63
2019-05-05T02:32:05.972Z,9.50
2019-05-05T02:34:35.654Z,8.73
2019-05-05T02:37:01.096Z,9.73
2019-05-05T02:39:27.294Z,9.83
2019-05-05T02:41:55.109Z,9.87
2019-05-05T02:44:25.347Z,8.60
2019-05-05T02:46:54.993Z,8.90
2019-05-05T02:49:20.990Z,9.13
2019-05-05T02:51:48.085Z,8.33
2019-05-05T02:54:14.995Z,8.93
2019-05-05T02:56:43.924Z,9.50
2019-05-05T02:59:14.724Z,10.00
2019-05-05T03:01:45.484Z,11.03
2019-05-05T03:04:14.169Z,9.83
2019-05-05T03:06:43.991Z,10.13
2019-05-05T03:09:13.778Z,10.00
2019-05-05T03:11:43.671Z,10.40
2019-05-05T03:14:14.346Z,11.20
2019-05-05T03:16:40.801Z,11.10
2019-05-05T03:19:08.991Z,10.33
2019-05-05T03:21:35.902Z,12.40
2019-05-05T03:24:03.746Z,12.23
2019-05-05T03:26:30.167Z,10.37
2019-05-05T03:28:58.323Z,10.37
2019-05-05T03:31:26.109Z,11.27
2019-05-05T03:33:55.045Z,9.60
2019-05-05T03:36:21.502Z,10.27
2019-05-05T03:38:48.230Z,10.97
2019-05-05T03:41:23.864Z,10.67
2019-05-05T03:44:01.301Z,9.90
2019-05-05T03:46:28.800Z,12.20
2019-05-05T03:48:55.080Z,12.07
2019-05-05T03:51:21.404Z,12.67
2019-05-05T03:53:47.712Z,11.73
2019-05-05T03:56:14.150Z,12.50
2019-05-05T03:58:40.515Z,10.73
2019-05-05T04:01:16.254Z,11.13
2019-05-05T04:03:43.527Z,12.33
2019-05-05T04:06:09.864Z,12.63
2019-05-05T04:08:36.464Z,14.57
2019-05-05T04:11:03.929Z,14.30
2019-05-05T04:13:31.331Z,14.50
2019-05-05T04:16:16.136Z,13.93
2019-05-05T04:18:47.312Z,12.33
2019-05-05T04:21:14.521Z,11.80
2019-05-05T04:23:40.738Z,13.57
2019-05-05T04:26:06.829Z,13.40
2019-05-05T04:28:34.558Z,12.43
2019-05-05T04:31:00.839Z,11.40
2019-05-05T04:33:27.079Z,11.93
2019-05-05T04:35:54.533Z,11.93
2019-05-05T04:38:21.897Z,11.57
2019-05-05T04:40:48.110Z,11.37
2019-05-05T04:43:14.461Z,10.43
2019-05-05T04:45:40.563Z,10.33
2019-05-05T04:48:08.659Z,11.30
2019-05-05T04:50:48.712Z,10.10
2019-05-05T04:53:19.446Z,10.17
2019-05-05T04:55:45.509Z,9.43
2019-05-05T04:58:13.547Z,9.53
2019-05-05T05:00:39.794Z,9.33
2019-05-05T05:03:08.946Z,9.37
2019-05-05T05:05:55.190Z,9.77
2019-05-05T05:08:21.255Z,8.90
2019-05-05T05:10:47.358Z,9.80
2019-05-05T05:13:13.968Z,8.97
2019-05-05T05:15:40.126Z,8.60
2019-05-05T05:18:08.253Z,9.13
2019-05-05T05:20:34.465Z,8.87
2019-05-05T05:23:00.548Z,9.17
2019-05-05T05:25:26.681Z,8.73
2019-05-05T05:27:53.634Z,8.40
2019-05-05T05:30:19.888Z,8.63
2019-05-05T05:32:46.209Z,8.80
2019-05-05T05:35:14.217Z,8.50
2019-05-05T05:37:40.412Z,7.93
2019-05-05T05:40:14.550Z,8.47
2019-05-05T05:42:43.836Z,7.57
2019-05-05T05:45:20.678Z,8.50
2019-05-05T05:48:06.698Z,8.13
2019-05-05T05:50:44.372Z,8.27
2019-05-05T05:53:10.761Z,7.90
2019-05-05T05:55:36.997Z,7.70
2019-05-05T05:58:04.826Z,8.57
2019-05-05T06:00:31.088Z,7.73
2019-05-05T06:02:57.222Z,8.17
2019-05-05T06:05:23.898Z,7.73
2019-05-05T06:07:50.076Z,7.43
2019-05-05T06:10:24.177Z,7.50
2019-05-05T06:12:45.448Z,7.17
2019-05-05T06:15:14.110Z,7.77
2019-05-05T06:17:40.104Z,7.50
2019-05-05T06:20:06.607Z,7.77
2019-05-05T06:22:34.377Z,7.93
2019-05-05T06:25:00.674Z,7.57
2019-05-05T06:27:26.916Z,7.60
2019-05-05T06:29:54.362Z,7.43
2019-05-05T06:32:20.676Z,6.97
2019-05-05T06:34:46.900Z,7.87
2019-05-05T06:37:14.529Z,7.97
2019-05-05T06:39:40.940Z,8.40
2019-05-05T06:42:21.047Z,9.13
2019-05-05T06:44:49.304Z,7.20
2019-05-05T06:47:17.533Z,7.37
2019-05-05T06:49:43.938Z,7.80
2019-05-05T06:52:10.342Z,7.77
2019-05-05T06:54:36.451Z,7.40
2019-05-05T06:57:04.586Z,7.40
2019-05-05T06:59:30.877Z,8.87
2019-05-05T07:01:57.166Z,8.53
2019-05-05T07:04:24.523Z,8.20
2019-05-05T07:06:56.161Z,7.93
2019-05-05T07:09:19.534Z,7.20
2019-05-05T07:11:46.220Z,8.47
2019-05-05T07:14:14.284Z,6.97
2019-05-05T07:16:40.831Z,8.57
2019-05-05T07:19:07.673Z,8.97
2019-05-05T07:21:35.480Z,9.20
2019-05-05T07:24:03.951Z,8.20
2019-05-05T07:26:30.823Z,8.67
2019-05-05T07:28:57.303Z,8.23
2019-05-05T07:31:23.977Z,8.37
2019-05-05T07:33:51.516Z,8.10
2019-05-05T07:36:25.706Z,7.77
2019-05-05T07:38:51.921Z,8.37
2019-05-05T07:41:18.263Z,7.90
2019-05-05T07:43:44.416Z,8.23
2019-05-05T07:46:10.738Z,7.80
2019-05-05T07:48:36.867Z,8.00
2019-05-05T07:51:05.336Z,8.40
2019-05-05T07:53:33.391Z,8.70
2019-05-05T07:55:59.421Z,8.40
2019-05-05T07:58:26.647Z,8.93
2019-05-05T08:00:54.086Z,8.30
2019-05-05T08:03:20.640Z,9.70
2019-05-05T08:05:46.849Z,8.73
2019-05-05T08:08:14.018Z,8.47
2019-05-05T08:10:40.186Z,8.90
2019-05-05T08:13:06.567Z,8.47
2019-05-05T08:15:34.498Z,8.83
2019-05-05T08:18:04.510Z,9.33
2019-05-05T08:20:35.586Z,8.67
2019-05-05T08:23:04.124Z,8.93
2019-05-05T08:25:45.383Z,8.93
2019-05-05T08:28:19.589Z,8.50
2019-05-05T08:30:47.817Z,8.87
2019-05-05T08:33:14.226Z,8.90
2019-05-05T08:35:40.399Z,7.97
2019-05-05T08:38:06.737Z,8.13
2019-05-05T08:40:34.553Z,8.30
2019-05-05T08:43:01.155Z,7.90
2019-05-05T08:45:27.379Z,8.30
2019-05-05T08:47:54.246Z,8.20
2019-05-05T08:50:24.033Z,8.43
2019-05-05T08:52:48.947Z,8.00
2019-05-05T08:55:15.313Z,7.80
2019-05-05T08:57:41.611Z,7.37
2019-05-05T09:00:09.340Z,7.37
2019-05-05T09:02:36.134Z,7.47
2019-05-05T09:05:04.539Z,7.10
2019-05-05T09:07:30.749Z,7.80
2019-05-05T09:09:57.102Z,8.10
2019-05-05T09:12:23.657Z,8.30
2019-05-05T09:14:50.126Z,7.87
2019-05-05T09:17:16.431Z,7.70
2019-05-05T09:19:44.862Z,7.70
2019-05-05T09:22:11.289Z,7.03
2019-05-05T09:24:39.516Z,7.97
2019-05-05T09:27:07.775Z,8.57
2019-05-05T09:29:36.014Z,8.17
2019-05-05T09:32:04.027Z,7.70
2019-05-05T09:34:31.607Z,8.00
2019-05-05T09:36:57.921Z,8.13
2019-05-05T09:39:24.743Z,8.53
2019-05-05T09:41:51.235Z,7.83
2019-05-05T09:44:18.239Z,7.83
2019-05-05T09:46:44.721Z,8.00
2019-05-05T09:49:11.048Z,8.23
2019-05-05T09:51:37.185Z,8.20
2019-05-05T09:54:13.786Z,7.87
2019-05-05T09:56:33.795Z,9.03
2019-05-05T09:58:59.865Z,8.20
2019-05-05T10:01:26.190Z,8.73
2019-05-05T10:03:54.317Z,8.10
2019-05-05T10:06:20.537Z,8.77
2019-05-05T10:08:46.714Z,9.90
2019-05-05T10:11:16.251Z,7.63
2019-05-05T10:13:41.098Z,7.70
2019-05-05T10:16:07.327Z,6.70
2019-05-05T10:18:35.737Z,5.93
2019-05-05T10:21:04.609Z,5.30
2019-05-05T10:23:34.197Z,5.33
2019-05-05T10:26:04.386Z,5.70
2019-05-05T10:28:31.699Z,6.20
2019-05-05T10:30:57.997Z,6.53
2019-05-05T10:33:24.682Z,6.37
2019-05-05T10:35:51.126Z,6.23
2019-05-05T10:38:17.452Z,6.83
2019-05-05T10:40:44.631Z,6.93
2019-05-05T10:43:11.106Z,7.30
2019-05-05T10:45:37.469Z,7.73
2019-05-05T10:48:04.234Z,7.40
2019-05-05T10:50:30.800Z,6.43
2019-05-05T10:52:57.554Z,6.70
2019-05-05T10:55:24.087Z,6.83
2019-05-05T10:57:50.390Z,5.53
2019-05-05T11:00:20.409Z,5.60
2019-05-05T11:02:46.671Z,5.30
2019-05-05T11:05:13.611Z,4.90
2019-05-05T11:07:40.660Z,4.20
2019-05-05T11:10:08.087Z,5.63
2019-05-05T11:12:34.288Z,5.57
2019-05-05T11:15:00.825Z,5.50
2019-05-05T11:17:27.141Z,5.67
2019-05-05T11:19:53.458Z,5.20
2019-05-05T11:22:19.674Z,5.17
2019-05-05T11:24:57.276Z,5.33
2019-05-05T11:27:14.144Z,5.23
2019-05-05T11:29:59.053Z,6.77
2019-05-05T11:32:44.132Z,6.00
2019-05-05T11:35:10.553Z,5.63
2019-05-05T11:37:36.694Z,6.20
2019-05-05T11:40:04.283Z,6.20
2019-05-05T11:42:30.508Z,6.40
2019-05-05T11:44:56.745Z,7.00
2019-05-05T11:47:24.525Z,7.23
2019-05-05T11:49:53.831Z,6.30
2019-05-05T11:52:19.022Z,6.57
2019-05-05T11:54:45.214Z,6.57
2019-05-05T11:57:13.443Z,6.73
2019-05-05T11:59:39.803Z,5.97
2019-05-05T12:02:06.125Z,7.43
2019-05-05T12:04:32.374Z,6.57
2019-05-05T12:06:58.613Z,6.43
2019-05-05T12:09:26.652Z,5.53
2019-05-05T12:11:54.581Z,5.83
2019-05-05T12:14:26.534Z,5.10
2019-05-05T12:16:52.867Z,5.07
2019-05-05T12:19:19.055Z,4.17
2019-05-05T12:21:45.398Z,5.20
2019-05-05T12:24:14.353Z,5.73
2019-05-05T12:26:51.514Z,5.43
2019-05-05T12:29:17.873Z,5.80
2019-05-05T12:31:45.916Z,6.17
2019-05-05T12:34:12.398Z,5.80
2019-05-05T12:36:38.509Z,6.03
2019-05-05T12:39:06.165Z,5.97
2019-05-05T12:41:33.895Z,6.13
2019-05-05T12:44:01.239Z,6.50
2019-05-05T12:46:38.664Z,6.43
2019-05-05T12:49:06.858Z,6.30
2019-05-05T12:51:34.435Z,6.07
2019-05-05T12:54:00.845Z,5.73
2019-05-05T12:56:27.217Z,5.77
2019-05-05T12:58:54.567Z,5.90
2019-05-05T13:01:28.856Z,5.47
2019-05-05T13:03:55.299Z,6.03
2019-05-05T13:06:23.845Z,6.00
2019-05-05T13:08:49.946Z,5.63
2019-05-05T13:11:16.381Z,5.70
2019-05-05T13:13:43.998Z,5.73
2019-05-05T13:16:13.502Z,5.37
2019-05-05T13:18:39.870Z,4.90
2019-05-05T13:21:25.019Z,4.80
2019-05-05T13:23:59.193Z,5.50
2019-05-05T13:26:40.578Z,5.50
2019-05-05T13:29:06.939Z,5.57
2019-05-05T13:31:33.763Z,6.10
2019-05-05T13:34:00.143Z,7.03
2019-05-05T13:36:26.506Z,6.13
2019-05-05T13:38:54.596Z,6.63
2019-05-05T13:41:21.056Z,6.33
2019-05-05T13:43:47.473Z,6.60
2019-05-05T13:46:18.571Z,6.73
2019-05-05T13:48:44.942Z,6.30
2019-05-05T13:51:15.733Z,6.00
2019-05-05T13:53:44.611Z,5.53
2019-05-05T13:56:12.572Z,6.27
2019-05-05T13:58:39.228Z,5.70
2019-05-05T14:01:05.575Z,5.43
2019-05-05T14:03:33.554Z,5.87
2019-05-05T14:06:00.086Z,5.07
2019-05-05T14:08:27.166Z,5.53
2019-05-05T14:10:54.023Z,5.60
2019-05-05T14:13:20.401Z,5.47
2019-05-05T14:15:46.743Z,5.53
2019-05-05T14:18:14.312Z,4.67
2019-05-05T14:20:40.552Z,5.30
2019-05-05T14:23:06.879Z,5.40
2019-05-05T14:25:33.278Z,4.93
2019-05-05T14:27:59.487Z,4.90
2019-05-05T14:30:44.565Z,5.53
2019-05-05T14:33:18.907Z,5.10
2019-05-05T14:35:53.978Z,5.93
2019-05-05T14:38:31.357Z,5.97
2019-05-05T14:40:57.743Z,5.00
2019-05-05T14:43:25.202Z,4.90
2019-05-05T14:45:54.619Z,5.07
2019-05-05T14:48:21.187Z,4.90
2019-05-05T14:50:47.521Z,4.80
2019-05-05T14:53:14.571Z,5.70
2019-05-05T14:55:40.991Z,5.10
2019-05-05T14:58:07.306Z,4.80
2019-05-05T15:00:33.803Z,7.57
2019-05-05T15:03:00.282Z,5.97
2019-05-05T15:05:37.812Z,6.43
2019-05-05T15:08:06.163Z,6.60
2019-05-05T15:10:49.179Z,5.77
2019-05-05T15:13:15.631Z,6.00
2019-05-05T15:15:42.134Z,6.20
2019-05-05T15:18:08.497Z,7.10
2019-05-05T15:20:36.571Z,6.83
2019-05-05T15:23:04.717Z,7.33
2019-05-05T15:25:34.019Z,6.87
2019-05-05T15:28:00.285Z,7.13
2019-05-05T15:30:27.311Z,6.70
2019-05-05T15:32:54.185Z,7.10
2019-05-05T15:35:20.417Z,7.17
2019-05-05T15:37:46.714Z,6.80
2019-05-05T15:40:14.318Z,6.20
2019-05-05T15:42:40.774Z,6.30
2019-05-05T15:45:07.296Z,5.93
2019-05-05T15:47:34.297Z,6.17
2019-05-05T15:50:00.643Z,6.50
2019-05-05T15:52:26.752Z,6.37
2019-05-05T15:54:53.955Z,5.97
2019-05-05T15:57:20.320Z,6.93
2019-05-05T15:59:46.630Z,6.07
2019-05-05T16:02:13.414Z,5.70
2019-05-05T16:04:39.841Z,8.10
2019-05-05T16:07:06.051Z,5.83
2019-05-05T16:09:32.344Z,6.07
2019-05-05T16:11:58.645Z,6.30
2019-05-05T16:14:25.247Z,6.33
2019-05-05T16:16:59.592Z,6.33
2019-05-05T16:19:45.958Z,6.57
2019-05-05T16:22:14.289Z,7.30
2019-05-05T16:24:44.605Z,6.50
2019-05-05T16:27:21.138Z,7.93
2019-05-05T16:29:39.054Z,6.80
2019-05-05T16:32:18.443Z,6.60
2019-05-05T16:34:33.740Z,7.97
2019-05-05T16:36:59.991Z,7.67
2019-05-05T16:39:26.179Z,6.43
2019-05-05T16:41:53.817Z,6.40
2019-05-05T16:44:20.313Z,6.33
2019-05-05T16:46:46.628Z,6.63
2019-05-05T16:49:14.015Z,5.93
2019-05-05T16:51:43.884Z,6.23
2019-05-05T16:54:13.711Z,6.43
2019-05-05T16:56:39.854Z,5.60
2019-05-05T16:59:06.179Z,5.47
2019-05-05T17:01:33.967Z,5.10
2019-05-05T17:04:09.256Z,4.97
2019-05-05T17:06:28.864Z,5.50
2019-05-05T17:08:54.993Z,5.23
2019-05-05T17:11:21.388Z,5.13
2019-05-05T17:13:55.171Z,5.60
2019-05-05T17:16:38.467Z,5.13
2019-05-05T17:19:09.439Z,4.90
2019-05-05T17:21:46.666Z,5.53
2019-05-05T17:24:14.099Z,5.53
2019-05-05T17:26:40.419Z,4.90
2019-05-05T17:29:06.710Z,5.37
2019-05-05T17:31:33.974Z,4.87
2019-05-05T17:34:00.287Z,5.60
2019-05-05T17:36:26.418Z,5.93
2019-05-05T17:38:54.380Z,4.93
2019-05-05T17:41:25.351Z,5.23
2019-05-05T17:43:54.173Z,5.20
2019-05-05T17:46:25.344Z,4.90
2019-05-05T17:48:53.997Z,4.73
2019-05-05T17:51:31.459Z,5.10
2019-05-05T17:54:14.866Z,5.60
2019-05-05T17:56:41.085Z,5.73
2019-05-05T17:59:07.439Z,4.70
2019-05-05T18:01:33.777Z,4.60
2019-05-05T18:04:00.083Z,4.40
2019-05-05T18:06:44.079Z,4.87
2019-05-05T18:09:23.413Z,5.10
2019-05-05T18:11:51.233Z,4.90
2019-05-05T18:14:35.859Z,5.50
2019-05-05T18:17:04.095Z,4.90
2019-05-05T18:19:30.529Z,4.40
2019-05-05T18:21:56.989Z,4.33
2019-05-05T18:24:24.271Z,3.97
2019-05-05T18:26:50.910Z,4.47
2019-05-05T18:29:18.209Z,4.80
2019-05-05T18:31:44.474Z,5.27
2019-05-05T18:34:10.855Z,5.07
2019-05-05T18:36:37.132Z,5.27
2019-05-05T18:39:05.961Z,6.93
2019-05-05T18:41:38.654Z,5.83
2019-05-05T18:44:15.801Z,6.10
2019-05-05T18:46:43.594Z,6.20
2019-05-05T18:49:09.894Z,6.30
2019-05-05T18:51:36.009Z,5.73
2019-05-05T18:54:04.053Z,6.53
2019-05-05T18:56:30.584Z,6.07
2019-05-05T18:58:56.976Z,6.17
2019-05-05T19:01:37.350Z,7.13
2019-05-05T19:04:05.686Z,6.37
2019-05-05T19:06:54.556Z,6.87
2019-05-05T19:09:22.141Z,6.37
2019-05-05T19:11:48.349Z,7.27
2019-05-05T19:14:14.773Z,8.00
2019-05-05T19:16:41.214Z,7.97
2019-05-05T19:19:07.635Z,7.67
2019-05-05T19:21:36.055Z,7.50
2019-05-05T19:24:03.857Z,7.10
2019-05-05T19:26:30.157Z,7.63
2019-05-05T19:28:56.518Z,7.90
2019-05-05T19:31:22.816Z,7.30
2019-05-05T19:33:49.286Z,7.33
2019-05-05T19:36:15.676Z,6.77
2019-05-05T19:38:44.018Z,6.10
2019-05-05T19:41:09.946Z,6.60
2019-05-05T19:43:38.060Z,6.57
2019-05-05T19:46:06.294Z,5.63
2019-05-05T19:48:34.000Z,5.87
2019-05-05T19:51:07.820Z,5.77
2019-05-05T19:53:35.594Z,6.30
2019-05-05T19:56:04.089Z,6.20
2019-05-05T19:58:30.602Z,6.30
2019-05-05T20:00:58.668Z,6.27
2019-05-05T20:03:25.008Z,7.17
2019-05-05T20:05:51.349Z,6.43
2019-05-05T20:08:17.473Z,5.83
2019-05-05T20:10:44.301Z,5.83
2019-05-05T20:13:10.668Z,5.77
2019-05-05T20:15:38.789Z,5.80
2019-05-05T20:18:04.887Z,6.33
2019-05-05T20:20:31.066Z,6.37
2019-05-05T20:22:57.402Z,6.40
2019-05-05T20:25:24.402Z,7.53
2019-05-05T20:27:50.782Z,7.27
2019-05-05T20:30:17.616Z,7.50
2019-05-05T20:32:56.314Z,8.40
2019-05-05T20:35:33.680Z,7.40
2019-05-05T20:38:01.508Z,7.83
2019-05-05T20:40:35.390Z,7.77
2019-05-05T20:43:03.819Z,7.40
2019-05-05T20:45:31.625Z,7.63
2019-05-05T20:47:57.891Z,8.00
2019-05-05T20:50:24.698Z,7.20
2019-05-05T20:52:50.887Z,7.83
2019-05-05T20:55:17.104Z,8.00
2019-05-05T20:57:44.307Z,7.70
2019-05-05T21:00:14.524Z,8.37
2019-05-05T21:02:43.581Z,8.00
2019-05-05T21:05:10.053Z,7.80
2019-05-05T21:07:36.760Z,7.50
2019-05-05T21:10:06.126Z,6.80
2019-05-05T21:12:40.117Z,7.30
2019-05-05T21:15:00.793Z,6.63
2019-05-05T21:17:27.194Z,7.47
2019-05-05T21:19:53.459Z,7.27
2019-05-05T21:22:38.216Z,7.63
2019-05-05T21:25:07.316Z,7.40
2019-05-05T21:27:34.122Z,8.33
2019-05-05T21:30:00.299Z,7.40
2019-05-05T21:32:26.480Z,7.50
2019-05-05T21:34:52.588Z,7.57
2019-05-05T21:37:18.851Z,7.87
2019-05-05T21:39:45.957Z,7.50
2019-05-05T21:42:14.069Z,7.80
2019-05-05T21:44:40.390Z,7.27
2019-05-05T21:47:06.882Z,7.90
2019-05-05T21:49:33.773Z,7.70
2019-05-05T21:52:11.266Z,7.40
2019-05-05T21:54:48.389Z,7.90
2019-05-05T21:57:19.315Z,7.67
2019-05-05T21:59:54.878Z,8.00
2019-05-05T22:02:15.373Z,7.70
2019-05-05T22:04:41.744Z,7.93
2019-05-05T22:07:08.163Z,8.17
2019-05-05T22:09:35.598Z,8.00
2019-05-05T22:12:04.051Z,7.97
2019-05-05T22:14:30.092Z,8.17
2019-05-05T22:16:56.274Z,7.87
2019-05-05T22:19:24.542Z,8.53
2019-05-05T22:22:07.683Z,7.60
2019-05-05T22:24:35.756Z,8.57
2019-05-05T22:27:01.976Z,8.50
2019-05-05T22:29:28.188Z,9.60
2019-05-05T22:31:54.352Z,8.73
2019-05-05T22:34:20.554Z,8.73
2019-05-05T22:36:46.929Z,9.10
2019-05-05T22:39:16.481Z,9.77
2019-05-05T22:41:41.343Z,10.30
2019-05-05T22:44:07.651Z,10.00
2019-05-05T22:46:34.750Z,9.70
2019-05-05T22:49:03.941Z,8.83
2019-05-05T22:51:31.358Z,9.33
2019-05-05T22:53:57.552Z,9.90
2019-05-05T22:56:24.147Z,10.23
2019-05-05T22:58:50.245Z,10.00
2019-05-05T23:01:16.648Z,9.93
2019-05-05T23:03:56.619Z,10.10
2019-05-05T23:06:30.393Z,9.70
2019-05-05T23:08:56.532Z,10.40
2019-05-05T23:11:23.930Z,9.73
2019-05-05T23:13:50.272Z,9.67
2019-05-05T23:16:27.163Z,9.60
2019-05-05T23:18:54.742Z,9.03
2019-05-05T23:21:29.216Z,8.73
2019-05-05T23:24:14.380Z,8.40
2019-05-05T23:26:43.773Z,9.43
2019-05-05T23:29:10.204Z,9.73
2019-05-05T23:31:36.382Z,8.97
2019-05-05T23:34:03.970Z,9.13
2019-05-05T23:36:30.282Z,8.87
2019-05-05T23:38:56.467Z,8.67
2019-05-05T23:41:23.912Z,8.80
2019-05-05T23:43:50.257Z,8.87
2019-05-05T23:46:16.438Z,10.30
2019-05-05T23:48:42.527Z,9.43
2019-05-05T23:51:08.627Z,8.40
2019-05-05T23:53:34.942Z,9.17
2019-05-05T23:56:01.226Z,9.67
2019-05-05T23:58:27.354Z,9.53
